Chen, Xue-Jun
ChinaManBorn 19682014 – 2026Runner id 563363
Events
82
65 race dates
Best pace
12.110
km/h · 2019
Best finish
1st
of 59 · 2017
Distance raced
8,752
km · splits not double-counted
Pace over time
km/h · higher is faster
Pace over time: 65 races and 17 splits from 2014 to 2026, ranging from 3.42 to 13.57 kilometres per hour, where higher is faster. A second, age-graded series is drawn above it; the gap between the two is the age credit.
- Actual pace
- Age-graded pace
- Split of a race already plotted
Results
| Date | Event | Distance | Result | Pace km/h | Placing |
|---|---|---|---|---|---|
| 2018-08-11 | 96km | 11:08:48 h | 8.612 | 4/218 | |
| 2018-10-06 | 50km | 13:44:32 h | 3.638 | 54/87 | |
| 2018-10-20 | 100km | 14:20:13 h | 6.975 | 2/32 | |
| 2018-11-02 | 116km | 18:19:52 h | 6.328 | 2/78 | |
| 2018-11-24 | 100km | 14:57:03 h | 6.689 | 10/198 | |
| 2018-12-02 | 50km | 6:55:06 h | 7.227 | 17/183 | |
| 2019-03-15 | 170km | 31:21:11 h | 5.422 | 5/170 | |
| 2019-04-13 | 95km | 13:22:11 h | 7.106 | 5/166 | |
| 2019-05-19 | 65km | 6:45:18 h | 9.623 | 10/40 | |
| 2019-06-01 | 106km | 16:40:39 h | 6.356 | 8/278 | |
| 2019-06-08 | 47.5km | 4:31:41 h | 10.490 | 6/90 | |
| 2019-06-29 | 70km | 11:48:00 h | 5.932 | 83/152 | |
| 2019-08-03 | 53km | 4:22:36 h | 12.110 | 9/525 | |
| 2019-08-24 | 103.6km | 19:49:47 h | 5.224 | 25/69 | |
| 2019-09-07 | 60km | 13:52:35 h | 4.324 | 102/103 | |
| 2019-10-06 | 99km | 16:59:35 h | 5.826 | 5/176 | |
| 2019-10-19 | 120km | 21:34:43 h | 5.561 | 6/107 | |
| 2020-09-19 | 100km | 15:13:52 h | 6.566 | 17/164 | |
| 2020-10-17 | 108km | 20:13:47 h | 5.339 | 3/52 | |
| 2021-04-10 | 60km | 11:08:48 h | 5.383 | 70/217 | |
| 2022-07-22 | 192km | 38:25:09 h | 4.998 | 20/187 | |
| 2023-04-15 | 109.6km | 17:25:53 h | 6.288 | 101/570 | |
| 2023-04-30 | 72h | 422.000 km | 5.861 | 2/4 | |
| 2023-10-21 | Ttear 100 kmChina | 100km | 16:24:38 h | 6.094 | 14/141 |
| 2023-12-03 | 6d | 704.000 km | 4.889 | 4/14 | |
| 2023-12-03 | Xiamen 6 Day Race - 72h SplitChinaIAU BronzeSplit of a longer race in this career; not counted again in the distance total | 72h | 390.000 km | 5.417 | 4/4 |
| 2023-12-03 | Xiamen 6 Day Race - 48h SplitChinaIAU BronzeSplit of a longer race in this career; not counted again in the distance total | 48h | 258.000 km | 5.375 | 4/4 |
| 2023-12-03 | Xiamen 6 Day Race - 24h SplitChinaIAU BronzeSplit of a longer race in this career; not counted again in the distance total | 24h | 132.000 km | 5.500 | 4/4 |
| 2025-04-18 | 159.2km | 31:21:49 h | 5.076 | 123/636 | |
| 2025-09-27 | Chiangmai 24 Hr ChallengeThailand | 24h | 190.114 km | 7.921 | 7/76 |
| 2025-11-08 | 100km | 25:25:26 h | 3.933 | 418/627 | |
| 2026-03-21 | 100km | 15:27:05 h | 6.472 | 27/221 |
Showing 51–82 of 82